Terminal Aerodrome Forecast
Issued by NWS

Home | Current Version | Previous Version | Text Only | Print | Product List | Glossary On
Versions: 1 2 3 4 5 6 7 8 9 10 11 12 13 14
000
FTUS46 KSTO 101100
TAFSAC
TAF
KSAC 101137Z 1012/1112 20008KT P6SM FEW200
     FM110100 22010G17KT P6SM FEW200
     FM110700 20010KT P6SM FEW200=

USA.gov is the U.S. government's official web portal to all federal, state and local government web resources and services.